createdAt,value
2023-02-27T00:00:14.030Z,73.40
2023-02-27T00:05:11.756Z,73.65
2023-02-27T00:10:09.850Z,75.22
2023-02-27T00:15:18.020Z,73.03
2023-02-27T00:20:16.398Z,73.97
2023-02-27T00:25:13.466Z,74.67
2023-02-27T00:30:11.509Z,75.27
2023-02-27T00:35:09.538Z,74.81
2023-02-27T00:40:10.700Z,76.49
2023-02-27T00:45:10.306Z,74.95
2023-02-27T00:50:07.234Z,75.17
2023-02-27T00:55:04.311Z,75.23
2023-02-27T01:00:01.670Z,74.61
2023-02-27T01:05:01.397Z,75.60
2023-02-27T01:09:58.732Z,73.76
2023-02-27T01:14:55.521Z,74.69
2023-02-27T01:19:53.153Z,76.98
2023-02-27T01:24:50.263Z,77.13
2023-02-27T01:29:46.982Z,77.91
2023-02-27T01:34:43.715Z,77.63
2023-02-27T01:39:41.192Z,76.80
2023-02-27T01:44:57.889Z,77.53
2023-02-27T01:49:56.120Z,78.38
2023-02-27T01:54:54.337Z,80.17
2023-02-27T01:59:51.076Z,79.66
2023-02-27T02:04:48.327Z,78.83
2023-02-27T02:09:49.114Z,79.92
2023-02-27T02:14:46.443Z,78.80
2023-02-27T02:20:06.865Z,77.45
2023-02-27T02:25:22.479Z,77.75
2023-02-27T02:30:31.598Z,79.08
2023-02-27T02:35:47.752Z,78.87
2023-02-27T02:40:47.970Z,79.57
2023-02-27T02:45:49.735Z,80.44
2023-02-27T02:50:50.072Z,80.21
2023-02-27T02:55:48.669Z,80.46
2023-02-27T03:00:48.767Z,81.38
2023-02-27T03:05:50.909Z,79.98
2023-02-27T03:10:50.704Z,82.77
2023-02-27T03:15:50.588Z,82.60
2023-02-27T03:20:51.192Z,82.50
2023-02-27T03:25:51.135Z,82.89
2023-02-27T03:30:52.792Z,82.58
2023-02-27T03:35:51.963Z,84.19
2023-02-27T03:40:52.611Z,82.71
2023-02-27T03:45:57.008Z,84.30
2023-02-27T03:50:53.856Z,83.77
2023-02-27T03:55:51.976Z,82.68
2023-02-27T04:00:48.688Z,81.95
2023-02-27T04:05:47.282Z,83.47
2023-02-27T04:10:48.170Z,82.69
2023-02-27T04:16:00.416Z,82.69
2023-02-27T04:20:59.669Z,83.84
2023-02-27T04:26:04.460Z,85.96
2023-02-27T04:31:11.729Z,85.77
2023-02-27T04:36:12.951Z,86.88
2023-02-27T04:41:14.580Z,87.48
2023-02-27T04:46:13.579Z,86.92
2023-02-27T04:51:12.910Z,86.18
2023-02-27T04:56:11.847Z,85.97
2023-02-27T05:01:11.835Z,85.45
2023-02-27T05:06:10.498Z,84.07
2023-02-27T05:11:09.523Z,83.77
2023-02-27T05:16:09.579Z,82.19
2023-02-27T05:21:11.720Z,84.32
2023-02-27T05:26:14.377Z,85.12
2023-02-27T05:31:16.282Z,84.14
2023-02-27T05:36:16.896Z,83.25
2023-02-27T05:41:16.225Z,80.47
2023-02-27T05:46:16.065Z,81.18
2023-02-27T05:51:15.004Z,81.35
2023-02-27T05:56:14.473Z,81.13
2023-02-27T06:01:11.888Z,79.73
2023-02-27T06:06:11.968Z,77.19
2023-02-27T06:11:08.896Z,75.10
2023-02-27T06:16:07.486Z,75.19
2023-02-27T06:21:05.276Z,75.62
2023-02-27T06:26:02.571Z,76.08
2023-02-27T06:30:59.610Z,75.06
2023-02-27T06:35:59.042Z,73.86
2023-02-27T06:41:00.014Z,74.67
2023-02-27T06:45:56.915Z,75.20
2023-02-27T06:50:54.139Z,79.41
2023-02-27T06:55:51.534Z,80.87
2023-02-27T07:00:52.323Z,80.70
2023-02-27T07:05:53.426Z,79.52
2023-02-27T07:17:15.926Z,79.92
2023-02-27T07:36:45.562Z,76.90
2023-02-27T09:08:59.785Z,84.76
2023-02-27T09:47:39.022Z,85.31
2023-02-27T09:52:41.733Z,85.71
2023-02-27T09:57:43.693Z,87.20
2023-02-27T10:02:49.335Z,85.94
2023-02-27T10:07:52.355Z,84.91
2023-02-27T10:13:15.356Z,85.24
2023-02-27T10:18:26.816Z,86.52
2023-02-27T10:23:30.802Z,86.02
2023-02-27T10:28:28.008Z,86.31
2023-02-27T10:33:28.585Z,85.23
2023-02-27T10:38:32.034Z,84.19
2023-02-27T10:43:31.478Z,82.88
2023-02-27T10:48:29.281Z,82.82
2023-02-27T10:53:27.351Z,79.88
2023-02-27T10:58:28.377Z,77.72
2023-02-27T11:03:28.530Z,78.57
2023-02-27T11:08:27.398Z,74.11
2023-02-27T11:13:27.954Z,74.47
2023-02-27T11:18:29.031Z,75.34
2023-02-27T11:23:26.544Z,71.58
2023-02-27T11:28:24.255Z,72.02
2023-02-27T11:33:21.182Z,69.63
2023-02-27T11:38:20.205Z,68.48
2023-02-27T11:43:19.359Z,70.74
2023-02-27T11:48:20.643Z,68.07
2023-02-27T11:53:29.229Z,67.47
2023-02-27T11:58:32.917Z,67.91
2023-02-27T12:03:35.426Z,67.37
2023-02-27T12:08:38.863Z,67.44
2023-02-27T12:13:41.519Z,66.72
2023-02-27T12:18:41.370Z,66.83
2023-02-27T12:23:43.082Z,65.40
2023-02-27T12:28:48.673Z,64.46
2023-02-27T12:33:49.985Z,62.78
2023-02-27T12:38:46.958Z,63.95
2023-02-27T12:43:51.973Z,62.62
2023-02-27T12:49:01.767Z,62.90
2023-02-27T12:54:03.844Z,62.03
2023-02-27T12:59:06.162Z,61.99
2023-02-27T13:04:13.133Z,63.61
2023-02-27T13:09:17.827Z,62.53
2023-02-27T13:14:24.351Z,61.98
2023-02-27T13:19:52.394Z,60.38
2023-02-27T13:24:50.644Z,60.18
2023-02-27T13:35:35.932Z,60.55
2023-02-27T13:40:35.252Z,59.79
2023-02-27T13:45:50.740Z,58.61
2023-02-27T13:50:49.685Z,59.78
2023-02-27T13:55:52.817Z,59.92
2023-02-27T14:01:00.450Z,59.71
2023-02-27T14:06:01.852Z,59.26
2023-02-27T14:11:03.388Z,59.11
2023-02-27T14:16:00.608Z,58.82
2023-02-27T14:20:58.424Z,58.93
2023-02-27T14:25:58.420Z,58.38
2023-02-27T14:30:57.065Z,58.39
2023-02-27T14:35:59.198Z,58.47
2023-02-27T14:41:10.016Z,58.44
2023-02-27T14:46:22.301Z,58.84
2023-02-27T14:51:19.383Z,58.03
2023-02-27T14:56:23.091Z,58.03
2023-02-27T15:01:22.782Z,57.74
2023-02-27T15:06:20.592Z,57.01
2023-02-27T15:11:18.739Z,57.64
2023-02-27T15:16:20.472Z,57.71
2023-02-27T15:21:20.409Z,57.94
2023-02-27T15:26:17.495Z,57.85
2023-02-27T15:31:26.669Z,57.55
2023-02-27T15:36:30.485Z,57.74
2023-02-27T15:41:27.849Z,58.58
2023-02-27T15:46:25.401Z,58.64
2023-02-27T15:51:22.561Z,58.40
2023-02-27T15:56:24.019Z,58.46
2023-02-27T16:01:22.039Z,58.09
2023-02-27T16:06:24.933Z,58.78
2023-02-27T16:11:26.233Z,58.76
2023-02-27T16:16:27.814Z,58.75
2023-02-27T16:21:25.840Z,58.58
2023-02-27T16:26:30.482Z,58.20
2023-02-27T16:31:28.752Z,58.40
2023-02-27T16:36:27.089Z,58.00
2023-02-27T16:41:27.458Z,58.09
2023-02-27T16:46:24.972Z,57.93
2023-02-27T16:51:23.268Z,58.01
2023-02-27T16:56:35.755Z,62.48
2023-02-27T17:01:34.814Z,65.71
2023-02-27T17:06:31.670Z,70.00
2023-02-27T17:11:28.559Z,71.19
2023-02-27T17:16:29.641Z,72.57
2023-02-27T17:21:27.471Z,74.07
2023-02-27T17:26:24.472Z,76.71
2023-02-27T17:31:41.402Z,76.51
2023-02-27T17:36:40.004Z,77.15
2023-02-27T17:41:46.359Z,75.85
2023-02-27T17:46:46.002Z,75.71
2023-02-27T17:51:46.443Z,75.33
2023-02-27T18:02:56.621Z,74.59
2023-02-27T18:07:55.599Z,75.07
2023-02-27T18:12:52.599Z,73.98
2023-02-27T18:17:52.468Z,74.67
2023-02-27T18:22:49.344Z,76.53
2023-02-27T18:27:46.921Z,76.88
2023-02-27T18:32:44.033Z,77.83
2023-02-27T18:37:42.967Z,77.77
2023-02-27T18:42:39.947Z,78.34
2023-02-27T18:47:37.458Z,80.45
2023-02-27T18:52:37.196Z,80.12
2023-02-27T18:57:34.277Z,79.02
2023-02-27T19:02:31.412Z,79.57
2023-02-27T19:07:36.386Z,80.13
2023-02-27T19:12:33.548Z,80.63
2023-02-27T19:17:30.429Z,83.19
2023-02-27T19:22:31.088Z,82.58
2023-02-27T19:27:29.979Z,83.96
2023-02-27T19:32:30.316Z,83.40
2023-02-27T19:37:27.269Z,82.83
2023-02-27T19:42:27.005Z,83.76
2023-02-27T19:47:34.021Z,83.01
2023-02-27T19:52:30.896Z,82.39
2023-02-27T19:57:30.394Z,83.15
2023-02-27T20:02:29.914Z,82.96
2023-02-27T20:07:29.515Z,81.93
2023-02-27T20:12:26.311Z,83.10
2023-02-27T20:17:23.080Z,83.96
2023-02-27T20:22:20.451Z,84.99
2023-02-27T20:27:17.334Z,86.68
2023-02-27T20:32:16.274Z,85.62
2023-02-27T20:37:13.045Z,83.99
2023-02-27T20:42:14.010Z,86.46
2023-02-27T20:47:10.689Z,86.67
2023-02-27T20:52:07.882Z,85.98
2023-02-27T20:57:04.502Z,87.14
2023-02-27T21:02:06.200Z,87.43
2023-02-27T21:07:07.919Z,86.63
2023-02-27T21:12:05.393Z,86.94
2023-02-27T21:17:09.384Z,86.80
2023-02-27T21:22:10.541Z,86.40
2023-02-27T21:27:07.293Z,85.46
2023-02-27T21:32:04.127Z,86.83
2023-02-27T21:37:03.828Z,86.27
2023-02-27T21:42:00.486Z,86.04
2023-02-27T21:46:57.862Z,85.62
2023-02-27T21:51:54.816Z,86.46
2023-02-27T21:56:52.140Z,86.34
2023-02-27T22:01:48.973Z,85.97
2023-02-27T22:06:48.689Z,85.89
2023-02-27T22:11:45.664Z,86.72
2023-02-27T22:16:51.505Z,86.15
2023-02-27T22:21:48.547Z,86.17
2023-02-27T22:26:47.132Z,86.98
2023-02-27T22:31:44.162Z,87.81
2023-02-27T22:36:41.548Z,86.92
2023-02-27T22:41:39.304Z,87.02
2023-02-27T22:46:37.048Z,85.58
2023-02-27T22:51:33.969Z,85.25
2023-02-27T22:56:32.440Z,84.74
2023-02-27T23:01:32.598Z,82.24
2023-02-27T23:06:30.650Z,84.72
2023-02-27T23:11:27.647Z,85.31
2023-02-27T23:16:25.372Z,85.52
2023-02-27T23:21:23.877Z,86.89
2023-02-27T23:26:20.594Z,86.69
2023-02-27T23:31:17.186Z,85.78
2023-02-27T23:36:15.178Z,84.90
2023-02-27T23:41:16.403Z,85.62
2023-02-27T23:46:14.100Z,84.92
2023-02-27T23:51:11.697Z,85.99
2023-02-27T23:56:13.428Z,85.45
